Terminal Aerodrome Forecast
Issued by NWS Boston, MA

Home | Current Version | Previous Version | Text Only | Print | Product List | Glossary On
Versions: 1 2 3 4 5 6 7 8 9 10 11 12 13 14 15 16 17 18 19 20 21 22 23 24 25 26
000
FTUS41 KBOX 222320
TAFPVD
TAF
KPVD 222320Z 2300/2324 16005KT P6SM BKN250
     FM230600 00000KT 1 1/2SM BR BKN100
     FM231400 16004KT P6SM BKN070
     FM231900 18009KT P6SM BKN035
     FM232300 17007KT P6SM BKN015=

USA.gov is the U.S. government's official web portal to all federal, state and local government web resources and services.